sensor_id;sensor_type;location;lat;lon;timestamp;pressure;altitude;pressure_sealevel;temperature;humidity
35848;BME280;22332;51.954;20.118;2023-04-02T00:00:18;99211.24;;;6.63;91.84
35848;BME280;22332;51.954;20.118;2023-04-02T00:04:05;99211.65;;;6.59;92.11
35848;BME280;22332;51.954;20.118;2023-04-02T00:07:25;99211.62;;;6.60;91.54
35848;BME280;22332;51.954;20.118;2023-04-02T00:10:38;99218.14;;;6.67;91.57
35848;BME280;22332;51.954;20.118;2023-04-02T00:13:45;99224.33;;;6.63;91.12
35848;BME280;22332;51.954;20.118;2023-04-02T00:16:51;99226.34;;;6.61;91.47
35848;BME280;22332;51.954;20.118;2023-04-02T00:20:01;99228.79;;;6.58;91.52
35848;BME280;22332;51.954;20.118;2023-04-02T00:23:12;99228.26;;;6.52;92.14
35848;BME280;22332;51.954;20.118;2023-04-02T00:26:30;99234.61;;;6.45;92.17
35848;BME280;22332;51.954;20.118;2023-04-02T00:29:36;99236.12;;;6.37;92.69
35848;BME280;22332;51.954;20.118;2023-04-02T00:32:49;99237.79;;;6.31;92.70
35848;BME280;22332;51.954;20.118;2023-04-02T00:35:56;99240.33;;;6.30;93.09
35848;BME280;22332;51.954;20.118;2023-04-02T00:39:03;99246.13;;;6.29;92.93
35848;BME280;22332;51.954;20.118;2023-04-02T00:42:12;99245.02;;;6.24;92.98
35848;BME280;22332;51.954;20.118;2023-04-02T00:45:25;99245.61;;;6.21;92.91
35848;BME280;22332;51.954;20.118;2023-04-02T00:48:36;99245.64;;;6.23;92.53
35848;BME280;22332;51.954;20.118;2023-04-02T00:51:49;99250.66;;;6.26;92.62
35848;BME280;22332;51.954;20.118;2023-04-02T00:55:02;99255.63;;;6.20;93.48
35848;BME280;22332;51.954;20.118;2023-04-02T00:58:18;99257.52;;;6.15;92.82
35848;BME280;22332;51.954;20.118;2023-04-02T01:01:33;99261.13;;;6.10;93.04
35848;BME280;22332;51.954;20.118;2023-04-02T01:04:39;99262.41;;;6.04;94.19
35848;BME280;22332;51.954;20.118;2023-04-02T01:07:57;99267.02;;;5.99;94.25
35848;BME280;22332;51.954;20.118;2023-04-02T01:11:15;99266.90;;;5.98;93.64
35848;BME280;22332;51.954;20.118;2023-04-02T01:18:09;99275.27;;;5.96;94.35
35848;BME280;22332;51.954;20.118;2023-04-02T01:21:35;99273.54;;;5.91;94.40
35848;BME280;22332;51.954;20.118;2023-04-02T01:24:45;99274.30;;;5.95;93.93
35848;BME280;22332;51.954;20.118;2023-04-02T01:27:54;99279.39;;;5.95;94.09
35848;BME280;22332;51.954;20.118;2023-04-02T01:31:02;99282.37;;;5.89;94.51
35848;BME280;22332;51.954;20.118;2023-04-02T01:34:10;99282.45;;;5.85;93.94
35848;BME280;22332;51.954;20.118;2023-04-02T01:37:28;99288.27;;;5.85;94.23
35848;BME280;22332;51.954;20.118;2023-04-02T01:40:41;99291.24;;;5.81;94.02
35848;BME280;22332;51.954;20.118;2023-04-02T01:43:54;99293.84;;;5.80;93.56
35848;BME280;22332;51.954;20.118;2023-04-02T01:47:04;99295.17;;;5.85;93.60
35848;BME280;22332;51.954;20.118;2023-04-02T01:50:23;99299.41;;;5.85;93.59
35848;BME280;22332;51.954;20.118;2023-04-02T01:53:31;99307.45;;;5.76;94.34
35848;BME280;22332;51.954;20.118;2023-04-02T01:56:37;99308.41;;;5.69;93.92
35848;BME280;22332;51.954;20.118;2023-04-02T01:59:43;99306.96;;;5.70;93.88
35848;BME280;22332;51.954;20.118;2023-04-02T02:02:50;99312.39;;;5.65;94.05
35848;BME280;22332;51.954;20.118;2023-04-02T02:05:57;99315.11;;;5.62;93.99
35848;BME280;22332;51.954;20.118;2023-04-02T02:09:05;99321.75;;;5.60;94.11
35848;BME280;22332;51.954;20.118;2023-04-02T02:12:14;99322.72;;;5.56;94.48
35848;BME280;22332;51.954;20.118;2023-04-02T02:15:21;99324.33;;;5.60;93.99
35848;BME280;22332;51.954;20.118;2023-04-02T02:18:28;99326.39;;;5.61;93.78
35848;BME280;22332;51.954;20.118;2023-04-02T02:21:38;99329.11;;;5.62;93.47
35848;BME280;22332;51.954;20.118;2023-04-02T02:24:47;99329.96;;;5.64;93.37
35848;BME280;22332;51.954;20.118;2023-04-02T02:27:59;99332.63;;;5.69;93.31
35848;BME280;22332;51.954;20.118;2023-04-02T02:31:10;99338.66;;;5.65;93.03
35848;BME280;22332;51.954;20.118;2023-04-02T02:34:28;99337.87;;;5.51;93.35
35848;BME280;22332;51.954;20.118;2023-04-02T02:37:38;99338.58;;;5.41;93.40
35848;BME280;22332;51.954;20.118;2023-04-02T02:40:51;99339.30;;;5.43;93.15
35848;BME280;22332;51.954;20.118;2023-04-02T02:44:01;99345.13;;;5.47;93.46
35848;BME280;22332;51.954;20.118;2023-04-02T02:47:12;99346.31;;;5.45;93.13
35848;BME280;22332;51.954;20.118;2023-04-02T02:50:21;99354.52;;;5.43;93.12
35848;BME280;22332;51.954;20.118;2023-04-02T02:53:27;99354.80;;;5.38;93.44
35848;BME280;22332;51.954;20.118;2023-04-02T02:56:39;99353.84;;;5.35;93.44
35848;BME280;22332;51.954;20.118;2023-04-02T02:59:46;99359.15;;;5.46;93.10
35848;BME280;22332;51.954;20.118;2023-04-02T03:02:54;99363.05;;;5.52;92.91
35848;BME280;22332;51.954;20.118;2023-04-02T03:06:04;99363.95;;;5.51;92.72
35848;BME280;22332;51.954;20.118;2023-04-02T03:09:17;99365.61;;;5.50;92.46
35848;BME280;22332;51.954;20.118;2023-04-02T03:12:37;99368.48;;;5.46;92.43
35848;BME280;22332;51.954;20.118;2023-04-02T03:15:52;99377.37;;;5.45;92.50
35848;BME280;22332;51.954;20.118;2023-04-02T03:19:03;99379.44;;;5.44;92.25
35848;BME280;22332;51.954;20.118;2023-04-02T03:22:17;99376.70;;;5.51;92.01
35848;BME280;22332;51.954;20.118;2023-04-02T03:25:31;99379.83;;;5.55;91.89
35848;BME280;22332;51.954;20.118;2023-04-02T03:28:42;99381.63;;;5.53;91.48
35848;BME280;22332;51.954;20.118;2023-04-02T03:31:55;99384.13;;;5.52;91.45
35848;BME280;22332;51.954;20.118;2023-04-02T03:35:04;99383.94;;;5.53;91.45
35848;BME280;22332;51.954;20.118;2023-04-02T03:38:17;99386.88;;;5.59;91.50
35848;BME280;22332;51.954;20.118;2023-04-02T03:41:30;99389.33;;;5.53;91.35
35848;BME280;22332;51.954;20.118;2023-04-02T03:44:44;99396.48;;;5.39;91.60
35848;BME280;22332;51.954;20.118;2023-04-02T03:47:57;99404.46;;;5.37;91.65
35848;BME280;22332;51.954;20.118;2023-04-02T03:51:05;99410.81;;;5.38;91.55
35848;BME280;22332;51.954;20.118;2023-04-02T03:54:14;99412.55;;;5.35;91.90
35848;BME280;22332;51.954;20.118;2023-04-02T03:57:26;99413.67;;;5.32;91.94
35848;BME280;22332;51.954;20.118;2023-04-02T04:00:33;99414.84;;;5.21;91.82
35848;BME280;22332;51.954;20.118;2023-04-02T04:03:43;99418.74;;;5.19;92.01
35848;BME280;22332;51.954;20.118;2023-04-02T04:06:51;99428.15;;;5.20;92.09
35848;BME280;22332;51.954;20.118;2023-04-02T04:09:58;99431.80;;;5.17;91.93
35848;BME280;22332;51.954;20.118;2023-04-02T04:13:08;99437.14;;;5.17;91.90
35848;BME280;22332;51.954;20.118;2023-04-02T04:16:17;99444.19;;;5.19;92.10
35848;BME280;22332;51.954;20.118;2023-04-02T04:19:30;99447.59;;;5.14;91.66
35848;BME280;22332;51.954;20.118;2023-04-02T04:22:38;99453.73;;;5.16;91.91
35848;BME280;22332;51.954;20.118;2023-04-02T04:25:59;99459.58;;;5.16;91.81
35848;BME280;22332;51.954;20.118;2023-04-02T04:29:24;99467.22;;;5.07;91.92
35848;BME280;22332;51.954;20.118;2023-04-02T04:32:38;99469.15;;;5.05;91.94
35848;BME280;22332;51.954;20.118;2023-04-02T04:35:57;99470.66;;;5.16;92.00
35848;BME280;22332;51.954;20.118;2023-04-02T04:39:10;99473.06;;;5.19;91.71
35848;BME280;22332;51.954;20.118;2023-04-02T04:42:23;99476.92;;;5.17;91.69
35848;BME280;22332;51.954;20.118;2023-04-02T04:45:39;99480.09;;;5.16;91.45
35848;BME280;22332;51.954;20.118;2023-04-02T04:48:51;99482.29;;;5.15;91.40
35848;BME280;22332;51.954;20.118;2023-04-02T04:52:05;99483.13;;;5.11;91.21
35848;BME280;22332;51.954;20.118;2023-04-02T04:55:33;99484.34;;;5.11;91.33
35848;BME280;22332;51.954;20.118;2023-04-02T04:58:43;99491.18;;;5.05;90.99
35848;BME280;22332;51.954;20.118;2023-04-02T05:01:54;99495.40;;;4.96;90.97
35848;BME280;22332;51.954;20.118;2023-04-02T05:05:03;99503.45;;;4.90;91.14
35848;BME280;22332;51.954;20.118;2023-04-02T05:08:16;99507.80;;;4.89;91.42
35848;BME280;22332;51.954;20.118;2023-04-02T05:11:29;99510.98;;;4.93;91.63
35848;BME280;22332;51.954;20.118;2023-04-02T05:14:45;99515.89;;;4.87;91.45
35848;BME280;22332;51.954;20.118;2023-04-02T05:18:01;99524.95;;;4.86;91.52
35848;BME280;22332;51.954;20.118;2023-04-02T05:21:17;99530.86;;;4.89;91.57
35848;BME280;22332;51.954;20.118;2023-04-02T05:24:50;99529.05;;;4.92;91.67
35848;BME280;22332;51.954;20.118;2023-04-02T05:28:00;99534.45;;;4.90;91.57
35848;BME280;22332;51.954;20.118;2023-04-02T05:31:11;99537.72;;;4.93;91.54
35848;BME280;22332;51.954;20.118;2023-04-02T05:34:25;99539.27;;;4.92;91.33
35848;BME280;22332;51.954;20.118;2023-04-02T05:37:33;99543.25;;;4.92;91.35
35848;BME280;22332;51.954;20.118;2023-04-02T05:40:42;99547.37;;;4.92;91.24
35848;BME280;22332;51.954;20.118;2023-04-02T05:43:57;99551.73;;;4.86;91.36
35848;BME280;22332;51.954;20.118;2023-04-02T05:47:06;99559.94;;;4.83;91.31
35848;BME280;22332;51.954;20.118;2023-04-02T05:50:23;99560.55;;;4.86;91.26
35848;BME280;22332;51.954;20.118;2023-04-02T05:53:34;99559.18;;;4.86;90.91
35848;BME280;22332;51.954;20.118;2023-04-02T05:56:44;99562.54;;;4.80;91.07
35848;BME280;22332;51.954;20.118;2023-04-02T05:59:56;99567.14;;;4.75;91.14
35848;BME280;22332;51.954;20.118;2023-04-02T06:03:06;99572.99;;;4.77;91.17
35848;BME280;22332;51.954;20.118;2023-04-02T06:06:25;99571.88;;;4.78;90.98
35848;BME280;22332;51.954;20.118;2023-04-02T06:09:38;99577.41;;;4.70;90.79
35848;BME280;22332;51.954;20.118;2023-04-02T06:12:48;99585.77;;;4.65;90.78
35848;BME280;22332;51.954;20.118;2023-04-02T06:15:56;99593.50;;;4.65;90.94
35848;BME280;22332;51.954;20.118;2023-04-02T06:19:12;99601.45;;;4.67;90.78
35848;BME280;22332;51.954;20.118;2023-04-02T06:22:30;99604.66;;;4.65;90.79
35848;BME280;22332;51.954;20.118;2023-04-02T06:25:40;99607.89;;;4.68;90.78
35848;BME280;22332;51.954;20.118;2023-04-02T06:28:49;99613.27;;;4.74;90.56
35848;BME280;22332;51.954;20.118;2023-04-02T06:32:01;99621.08;;;4.79;90.63
35848;BME280;22332;51.954;20.118;2023-04-02T06:35:10;99622.02;;;4.85;90.11
35848;BME280;22332;51.954;20.118;2023-04-02T06:38:20;99629.25;;;4.95;90.51
35848;BME280;22332;51.954;20.118;2023-04-02T06:41:28;99632.13;;;4.96;89.82
35848;BME280;22332;51.954;20.118;2023-04-02T06:44:53;99640.26;;;4.88;89.29
35848;BME280;22332;51.954;20.118;2023-04-02T06:48:19;99648.38;;;4.81;89.48
35848;BME280;22332;51.954;20.118;2023-04-02T06:51:33;99655.95;;;4.77;89.21
35848;BME280;22332;51.954;20.118;2023-04-02T06:54:42;99662.45;;;4.69;89.21
35848;BME280;22332;51.954;20.118;2023-04-02T06:57:49;99656.51;;;4.62;89.33
35848;BME280;22332;51.954;20.118;2023-04-02T07:00:56;99662.94;;;4.57;89.53
35848;BME280;22332;51.954;20.118;2023-04-02T07:04:18;99668.13;;;4.56;89.73
35848;BME280;22332;51.954;20.118;2023-04-02T07:07:27;99676.20;;;4.61;89.76
35848;BME280;22332;51.954;20.118;2023-04-02T07:10:33;99681.94;;;4.68;89.35
35848;BME280;22332;51.954;20.118;2023-04-02T07:13:39;99689.46;;;4.66;88.76
35848;BME280;22332;51.954;20.118;2023-04-02T07:16:45;99693.66;;;4.52;88.73
35848;BME280;22332;51.954;20.118;2023-04-02T07:19:50;99690.42;;;4.40;88.93
35848;BME280;22332;51.954;20.118;2023-04-02T07:22:58;99696.30;;;4.41;89.49
35848;BME280;22332;51.954;20.118;2023-04-02T07:26:05;99704.98;;;4.45;89.56
35848;BME280;22332;51.954;20.118;2023-04-02T07:29:15;99708.05;;;4.44;89.40
35848;BME280;22332;51.954;20.118;2023-04-02T07:32:21;99713.07;;;4.43;89.49
35848;BME280;22332;51.954;20.118;2023-04-02T07:35:28;99715.99;;;4.46;89.61
35848;BME280;22332;51.954;20.118;2023-04-02T07:38:33;99725.36;;;4.50;89.58
35848;BME280;22332;51.954;20.118;2023-04-02T07:41:53;99720.55;;;4.55;89.31
35848;BME280;22332;51.954;20.118;2023-04-02T07:44:59;99721.53;;;4.56;89.27
35848;BME280;22332;51.954;20.118;2023-04-02T07:48:07;99726.23;;;4.56;89.23
35848;BME280;22332;51.954;20.118;2023-04-02T07:51:18;99737.48;;;4.65;89.43
35848;BME280;22332;51.954;20.118;2023-04-02T07:54:24;99742.52;;;4.75;88.98
35848;BME280;22332;51.954;20.118;2023-04-02T07:57:30;99747.27;;;4.72;88.68
35848;BME280;22332;51.954;20.118;2023-04-02T08:00:35;99752.77;;;4.68;88.94
35848;BME280;22332;51.954;20.118;2023-04-02T08:03:42;99756.94;;;4.75;89.23
35848;BME280;22332;51.954;20.118;2023-04-02T08:06:48;99759.77;;;4.87;89.19
35848;BME280;22332;51.954;20.118;2023-04-02T08:09:56;99761.70;;;5.04;89.08
35848;BME280;22332;51.954;20.118;2023-04-02T08:13:01;99766.71;;;5.16;88.41
35848;BME280;22332;51.954;20.118;2023-04-02T08:16:08;99765.45;;;5.19;88.33
35848;BME280;22332;51.954;20.118;2023-04-02T08:19:14;99760.98;;;5.23;88.08
35848;BME280;22332;51.954;20.118;2023-04-02T08:22:19;99763.00;;;5.26;87.45
35848;BME280;22332;51.954;20.118;2023-04-02T08:25:25;99766.10;;;5.36;87.71
35848;BME280;22332;51.954;20.118;2023-04-02T08:28:31;99770.20;;;5.43;87.16
35848;BME280;22332;51.954;20.118;2023-04-02T08:31:36;99775.17;;;5.43;86.64
35848;BME280;22332;51.954;20.118;2023-04-02T08:34:42;99775.11;;;5.40;87.07
35848;BME280;22332;51.954;20.118;2023-04-02T08:37:48;99777.80;;;5.41;86.83
35848;BME280;22332;51.954;20.118;2023-04-02T08:40:57;99788.37;;;5.37;86.52
35848;BME280;22332;51.954;20.118;2023-04-02T08:44:23;99794.95;;;5.34;87.12
35848;BME280;22332;51.954;20.118;2023-04-02T08:47:32;99796.61;;;5.50;87.39
35848;BME280;22332;51.954;20.118;2023-04-02T08:50:42;99798.06;;;5.62;86.76
35848;BME280;22332;51.954;20.118;2023-04-02T08:53:48;99801.98;;;5.72;85.76
35848;BME280;22332;51.954;20.118;2023-04-02T08:57:00;99809.43;;;5.73;85.86
35848;BME280;22332;51.954;20.118;2023-04-02T09:00:11;99812.77;;;5.71;85.80
35848;BME280;22332;51.954;20.118;2023-04-02T09:03:29;99810.65;;;5.72;85.00
35848;BME280;22332;51.954;20.118;2023-04-02T09:06:37;99816.71;;;5.65;84.38
35848;BME280;22332;51.954;20.118;2023-04-02T09:09:42;99820.77;;;5.52;83.74
35848;BME280;22332;51.954;20.118;2023-04-02T09:12:52;99827.09;;;5.46;84.79
35848;BME280;22332;51.954;20.118;2023-04-02T09:16:04;99831.13;;;5.43;83.98
35848;BME280;22332;51.954;20.118;2023-04-02T09:19:20;99837.22;;;5.43;84.99
35848;BME280;22332;51.954;20.118;2023-04-02T09:22:28;99846.86;;;5.42;84.56
35848;BME280;22332;51.954;20.118;2023-04-02T09:25:40;99854.96;;;5.38;83.63
35848;BME280;22332;51.954;20.118;2023-04-02T09:28:45;99857.48;;;5.29;83.50
35848;BME280;22332;51.954;20.118;2023-04-02T09:31:56;99865.04;;;5.21;83.94
35848;BME280;22332;51.954;20.118;2023-04-02T09:35:11;99871.56;;;5.29;84.85
35848;BME280;22332;51.954;20.118;2023-04-02T09:38:20;99879.85;;;5.42;83.86
35848;BME280;22332;51.954;20.118;2023-04-02T09:41:30;99883.15;;;5.40;83.23
35848;BME280;22332;51.954;20.118;2023-04-02T09:44:36;99883.48;;;5.36;82.97
35848;BME280;22332;51.954;20.118;2023-04-02T09:47:41;99884.33;;;5.41;83.93
35848;BME280;22332;51.954;20.118;2023-04-02T09:50:47;99888.48;;;5.46;82.86
35848;BME280;22332;51.954;20.118;2023-04-02T09:54:07;99891.80;;;5.51;83.23
35848;BME280;22332;51.954;20.118;2023-04-02T09:57:21;99899.69;;;5.54;82.66
35848;BME280;22332;51.954;20.118;2023-04-02T10:00:30;99900.74;;;5.51;82.72
35848;BME280;22332;51.954;20.118;2023-04-02T10:03:36;99905.14;;;5.54;82.36
35848;BME280;22332;51.954;20.118;2023-04-02T10:06:49;99911.17;;;5.53;82.83
35848;BME280;22332;51.954;20.118;2023-04-02T10:09:59;99919.77;;;5.63;82.50
35848;BME280;22332;51.954;20.118;2023-04-02T10:13:08;99918.67;;;5.63;81.60
35848;BME280;22332;51.954;20.118;2023-04-02T10:16:24;99919.27;;;5.58;81.04
35848;BME280;22332;51.954;20.118;2023-04-02T10:19:37;99918.36;;;5.65;81.67
35848;BME280;22332;51.954;20.118;2023-04-02T10:22:45;99917.06;;;5.70;80.85
35848;BME280;22332;51.954;20.118;2023-04-02T10:25:57;99916.75;;;5.79;81.49
35848;BME280;22332;51.954;20.118;2023-04-02T10:29:21;99912.96;;;5.95;82.68
35848;BME280;22332;51.954;20.118;2023-04-02T10:32:35;99916.19;;;6.28;81.39
35848;BME280;22332;51.954;20.118;2023-04-02T10:35:46;99918.06;;;6.44;81.30
35848;BME280;22332;51.954;20.118;2023-04-02T10:39:00;99927.96;;;6.59;80.44
35848;BME280;22332;51.954;20.118;2023-04-02T10:42:18;99936.07;;;6.57;79.69
35848;BME280;22332;51.954;20.118;2023-04-02T10:45:35;99935.91;;;6.44;79.02
35848;BME280;22332;51.954;20.118;2023-04-02T10:48:48;99942.64;;;6.30;79.11
35848;BME280;22332;51.954;20.118;2023-04-02T10:51:59;99947.70;;;6.12;78.18
35848;BME280;22332;51.954;20.118;2023-04-02T10:55:12;99960.52;;;5.92;78.43
35848;BME280;22332;51.954;20.118;2023-04-02T10:58:23;99963.82;;;5.72;78.34
35848;BME280;22332;51.954;20.118;2023-04-02T11:01:30;99974.05;;;5.53;78.90
35848;BME280;22332;51.954;20.118;2023-04-02T11:04:42;99972.80;;;5.57;79.41
35848;BME280;22332;51.954;20.118;2023-04-02T11:07:54;99978.32;;;5.67;80.17
35848;BME280;22332;51.954;20.118;2023-04-02T11:11:04;99982.94;;;5.75;80.03
35848;BME280;22332;51.954;20.118;2023-04-02T11:14:14;99989.96;;;5.76;79.72
35848;BME280;22332;51.954;20.118;2023-04-02T11:17:21;99996.30;;;5.69;79.76
35848;BME280;22332;51.954;20.118;2023-04-02T11:20:56;99999.48;;;5.63;79.77
35848;BME280;22332;51.954;20.118;2023-04-02T11:24:03;100009.52;;;5.66;80.27
35848;BME280;22332;51.954;20.118;2023-04-02T11:27:16;100015.77;;;5.69;79.21
35848;BME280;22332;51.954;20.118;2023-04-02T11:30:24;100019.99;;;5.56;79.22
35848;BME280;22332;51.954;20.118;2023-04-02T11:33:40;100022.92;;;5.48;78.97
35848;BME280;22332;51.954;20.118;2023-04-02T11:37:06;100022.04;;;5.48;79.97
35848;BME280;22332;51.954;20.118;2023-04-02T11:40:49;100029.67;;;5.45;79.63
35848;BME280;22332;51.954;20.118;2023-04-02T11:44:01;100031.77;;;5.46;80.17
35848;BME280;22332;51.954;20.118;2023-04-02T11:47:18;100034.58;;;5.48;80.23
35848;BME280;22332;51.954;20.118;2023-04-02T11:50:34;100039.48;;;5.42;80.29
35848;BME280;22332;51.954;20.118;2023-04-02T11:53:42;100043.55;;;5.40;80.26
35848;BME280;22332;51.954;20.118;2023-04-02T11:56:53;100047.06;;;5.40;79.84
35848;BME280;22332;51.954;20.118;2023-04-02T12:00:15;100048.55;;;5.41;79.80
35848;BME280;22332;51.954;20.118;2023-04-02T12:03:46;100055.46;;;5.39;79.85
35848;BME280;22332;51.954;20.118;2023-04-02T12:07:06;100061.91;;;5.38;79.40
35848;BME280;22332;51.954;20.118;2023-04-02T12:10:19;100063.33;;;5.26;79.66
35848;BME280;22332;51.954;20.118;2023-04-02T12:13:51;100064.81;;;5.21;79.97
35848;BME280;22332;51.954;20.118;2023-04-02T12:16:57;100066.77;;;5.17;80.38
35848;BME280;22332;51.954;20.118;2023-04-02T12:20:19;100074.68;;;4.99;80.16
35848;BME280;22332;51.954;20.118;2023-04-02T12:23:28;100073.86;;;4.91;80.99
35848;BME280;22332;51.954;20.118;2023-04-02T12:26:36;100076.29;;;4.97;81.13
35848;BME280;22332;51.954;20.118;2023-04-02T12:29:41;100083.92;;;5.07;80.99
35848;BME280;22332;51.954;20.118;2023-04-02T12:32:47;100085.87;;;5.11;81.07
35848;BME280;22332;51.954;20.118;2023-04-02T12:35:56;100089.65;;;5.10;81.32
35848;BME280;22332;51.954;20.118;2023-04-02T12:39:02;100092.19;;;5.12;81.72
35848;BME280;22332;51.954;20.118;2023-04-02T12:42:26;100096.13;;;5.11;81.49
35848;BME280;22332;51.954;20.118;2023-04-02T12:45:33;100102.20;;;5.21;81.35
35848;BME280;22332;51.954;20.118;2023-04-02T12:48:39;100102.93;;;5.23;81.12
35848;BME280;22332;51.954;20.118;2023-04-02T12:51:45;100107.14;;;5.32;81.23
35848;BME280;22332;51.954;20.118;2023-04-02T12:54:53;100108.10;;;5.36;80.97
35848;BME280;22332;51.954;20.118;2023-04-02T12:58:00;100111.84;;;5.40;81.01
35848;BME280;22332;51.954;20.118;2023-04-02T13:01:14;100117.20;;;5.43;80.81
35848;BME280;22332;51.954;20.118;2023-04-02T13:04:22;100119.83;;;5.37;80.74
35848;BME280;22332;51.954;20.118;2023-04-02T13:07:29;100119.33;;;5.39;81.27
35848;BME280;22332;51.954;20.118;2023-04-02T13:10:36;100123.83;;;5.46;81.06
35848;BME280;22332;51.954;20.118;2023-04-02T13:13:44;100127.68;;;5.44;81.01
35848;BME280;22332;51.954;20.118;2023-04-02T13:16:50;100128.91;;;5.38;81.15
35848;BME280;22332;51.954;20.118;2023-04-02T13:20:29;100129.06;;;5.27;81.77
35848;BME280;22332;51.954;20.118;2023-04-02T13:23:37;100131.98;;;5.19;81.72
35848;BME280;22332;51.954;20.118;2023-04-02T13:26:43;100134.59;;;5.15;82.05
35848;BME280;22332;51.954;20.118;2023-04-02T13:29:48;100147.85;;;5.12;82.05
35848;BME280;22332;51.954;20.118;2023-04-02T13:32:55;100149.54;;;5.11;82.03
35848;BME280;22332;51.954;20.118;2023-04-02T13:36:00;100152.85;;;5.11;82.01
35848;BME280;22332;51.954;20.118;2023-04-02T13:39:06;100154.25;;;5.14;82.23
35848;BME280;22332;51.954;20.118;2023-04-02T13:42:12;100166.96;;;5.05;81.94
35848;BME280;22332;51.954;20.118;2023-04-02T13:45:24;100171.80;;;4.92;81.69
35848;BME280;22332;51.954;20.118;2023-04-02T13:48:30;100171.59;;;4.77;82.00
35848;BME280;22332;51.954;20.118;2023-04-02T13:51:38;100179.10;;;4.78;82.08
35848;BME280;22332;51.954;20.118;2023-04-02T13:54:46;100180.27;;;4.88;81.62
35848;BME280;22332;51.954;20.118;2023-04-02T13:57:56;100186.48;;;4.78;81.60
35848;BME280;22332;51.954;20.118;2023-04-02T14:01:02;100193.83;;;4.72;81.50
35848;BME280;22332;51.954;20.118;2023-04-02T14:04:08;100196.42;;;4.65;81.68
35848;BME280;22332;51.954;20.118;2023-04-02T14:07:27;100201.72;;;4.58;82.01
35848;BME280;22332;51.954;20.118;2023-04-02T14:10:46;100202.54;;;4.45;81.72
35848;BME280;22332;51.954;20.118;2023-04-02T14:14:12;100205.41;;;4.27;81.66
35848;BME280;22332;51.954;20.118;2023-04-02T14:17:27;100214.90;;;4.14;81.98
35848;BME280;22332;51.954;20.118;2023-04-02T14:20:41;100218.33;;;4.00;81.80
35848;BME280;22332;51.954;20.118;2023-04-02T14:23:59;100228.46;;;3.84;81.80
35848;BME280;22332;51.954;20.118;2023-04-02T14:27:20;100232.39;;;3.79;81.97
35848;BME280;22332;51.954;20.118;2023-04-02T14:30:38;100235.12;;;3.77;81.71
35848;BME280;22332;51.954;20.118;2023-04-02T14:33:52;100244.98;;;3.57;81.74
35848;BME280;22332;51.954;20.118;2023-04-02T14:37:08;100244.97;;;3.37;82.04
35848;BME280;22332;51.954;20.118;2023-04-02T14:40:22;100251.59;;;3.20;82.32
35848;BME280;22332;51.954;20.118;2023-04-02T14:43:38;100254.66;;;3.06;82.48
35848;BME280;22332;51.954;20.118;2023-04-02T14:46:47;100257.39;;;3.00;82.65
35848;BME280;22332;51.954;20.118;2023-04-02T14:49:57;100261.21;;;3.01;82.67
35848;BME280;22332;51.954;20.118;2023-04-02T14:53:11;100265.49;;;3.02;82.68
35848;BME280;22332;51.954;20.118;2023-04-02T14:56:21;100263.77;;;2.99;82.75
35848;BME280;22332;51.954;20.118;2023-04-02T14:59:31;100262.67;;;2.92;83.16
35848;BME280;22332;51.954;20.118;2023-04-02T15:02:42;100267.05;;;2.79;83.40
35848;BME280;22332;51.954;20.118;2023-04-02T15:05:53;100267.01;;;2.72;83.60
35848;BME280;22332;51.954;20.118;2023-04-02T15:09:04;100264.56;;;2.69;83.93
35848;BME280;22332;51.954;20.118;2023-04-02T15:12:18;100264.77;;;2.68;83.74
35848;BME280;22332;51.954;20.118;2023-04-02T15:15:33;100264.87;;;2.67;83.99
35848;BME280;22332;51.954;20.118;2023-04-02T15:18:40;100269.29;;;2.61;84.43
35848;BME280;22332;51.954;20.118;2023-04-02T15:21:56;100275.46;;;2.52;84.40
35848;BME280;22332;51.954;20.118;2023-04-02T15:25:18;100282.38;;;2.52;84.36
35848;BME280;22332;51.954;20.118;2023-04-02T15:28:30;100287.78;;;2.50;84.93
35848;BME280;22332;51.954;20.118;2023-04-02T15:31:42;100295.89;;;2.46;85.56
35848;BME280;22332;51.954;20.118;2023-04-02T15:34:52;100299.77;;;2.51;85.54
35848;BME280;22332;51.954;20.118;2023-04-02T15:38:06;100302.05;;;2.57;85.18
35848;BME280;22332;51.954;20.118;2023-04-02T15:41:16;100309.08;;;2.65;85.40
35848;BME280;22332;51.954;20.118;2023-04-02T15:44:26;100311.92;;;2.75;85.42
35848;BME280;22332;51.954;20.118;2023-04-02T15:47:37;100316.67;;;2.75;85.76
35848;BME280;22332;51.954;20.118;2023-04-02T15:51:00;100322.34;;;2.77;85.84
35848;BME280;22332;51.954;20.118;2023-04-02T15:54:15;100326.16;;;2.83;85.89
35848;BME280;22332;51.954;20.118;2023-04-02T15:57:39;100334.05;;;2.83;85.92
35848;BME280;22332;51.954;20.118;2023-04-02T16:00:53;100339.23;;;2.87;85.77
35848;BME280;22332;51.954;20.118;2023-04-02T16:04:14;100340.04;;;2.80;85.94
35848;BME280;22332;51.954;20.118;2023-04-02T16:10:49;100352.82;;;2.86;85.90
35848;BME280;22332;51.954;20.118;2023-04-02T16:14:14;100356.60;;;2.93;86.14
35848;BME280;22332;51.954;20.118;2023-04-02T16:17:25;100361.27;;;2.99;86.50
35848;BME280;22332;51.954;20.118;2023-04-02T16:20:35;100365.55;;;3.01;86.34
35848;BME280;22332;51.954;20.118;2023-04-02T16:23:42;100370.15;;;3.01;86.37
35848;BME280;22332;51.954;20.118;2023-04-02T16:26:56;100369.59;;;3.04;86.34
35848;BME280;22332;51.954;20.118;2023-04-02T16:30:20;100374.86;;;3.06;86.56
35848;BME280;22332;51.954;20.118;2023-04-02T16:33:35;100376.33;;;3.08;86.42
35848;BME280;22332;51.954;20.118;2023-04-02T16:36:53;100379.33;;;3.16;87.04
35848;BME280;22332;51.954;20.118;2023-04-02T16:40:06;100382.80;;;3.17;87.22
35848;BME280;22332;51.954;20.118;2023-04-02T16:43:21;100386.73;;;3.15;87.48
35848;BME280;22332;51.954;20.118;2023-04-02T16:46:36;100392.08;;;3.17;87.32
35848;BME280;22332;51.954;20.118;2023-04-02T16:49:43;100399.20;;;3.21;87.86
35848;BME280;22332;51.954;20.118;2023-04-02T16:52:57;100402.77;;;3.23;88.31
35848;BME280;22332;51.954;20.118;2023-04-02T16:56:23;100406.71;;;3.27;88.51
35848;BME280;22332;51.954;20.118;2023-04-02T16:59:38;100406.67;;;3.30;88.61